createdAt,value
2022-11-23T00:01:27.042Z,14.07
2022-11-23T00:03:28.653Z,17.02
2022-11-23T00:05:31.258Z,15.65
2022-11-23T00:07:32.929Z,13.77
2022-11-23T00:09:34.637Z,21.17
2022-11-23T00:11:36.708Z,17.65
2022-11-23T00:13:40.796Z,15.93
2022-11-23T00:15:42.463Z,16.92
2022-11-23T00:17:44.136Z,13.73
2022-11-23T00:19:45.697Z,15.35
2022-11-23T00:21:47.273Z,14.43
2022-11-23T00:23:49.248Z,14.95
2022-11-23T00:25:50.878Z,12.40
2022-11-23T00:28:01.936Z,12.05
2022-11-23T00:30:04.813Z,10.23
2022-11-23T00:32:06.405Z,11.57
2022-11-23T00:34:08.057Z,13.77
2022-11-23T00:36:14.670Z,10.05
2022-11-23T00:38:22.452Z,10.10
2022-11-23T00:40:24.103Z,10.85
2022-11-23T00:42:25.797Z,11.88
2022-11-23T00:44:27.381Z,14.13
2022-11-23T00:46:29.079Z,12.20
2022-11-23T00:48:30.747Z,11.80
2022-11-23T00:50:32.603Z,11.82
2022-11-23T00:52:34.246Z,12.23
2022-11-23T00:54:38.809Z,12.32
2022-11-23T00:56:44.205Z,12.15
2022-11-23T00:58:50.464Z,12.57
2022-11-23T01:01:00.974Z,11.80
2022-11-23T01:03:02.540Z,12.27
2022-11-23T01:05:04.334Z,11.82
2022-11-23T01:07:06.087Z,11.90
2022-11-23T01:09:13.391Z,8.60
2022-11-23T01:11:14.974Z,10.80
2022-11-23T01:13:16.686Z,9.05
2022-11-23T01:15:33.389Z,10.25
2022-11-23T01:17:34.981Z,8.85
2022-11-23T01:19:36.645Z,9.63
2022-11-23T01:21:38.483Z,11.43
2022-11-23T01:23:41.312Z,10.38
2022-11-23T01:25:46.673Z,12.13
2022-11-23T01:27:48.306Z,10.50
2022-11-23T01:29:56.248Z,11.88
2022-11-23T01:31:57.949Z,9.98
2022-11-23T01:34:01.771Z,10.68
2022-11-23T01:38:18.234Z,10.45
2022-11-23T01:40:23.380Z,11.27
2022-11-23T01:42:40.414Z,12.85
2022-11-23T01:44:42.053Z,12.65
2022-11-23T01:46:43.676Z,9.73
2022-11-23T01:48:56.481Z,10.07
2022-11-23T01:50:59.753Z,10.98
2022-11-23T01:53:01.342Z,10.50
2022-11-23T01:55:08.263Z,9.77
2022-11-23T01:57:13.798Z,9.35
2022-11-23T01:59:17.430Z,9.90
2022-11-23T02:01:19.250Z,15.13
2022-11-23T02:03:21.194Z,12.77
2022-11-23T02:05:25.709Z,9.48
2022-11-23T02:07:28.687Z,9.93
2022-11-23T02:09:34.284Z,11.75
2022-11-23T02:11:36.074Z,10.40
2022-11-23T02:13:37.744Z,8.73
2022-11-23T02:15:39.608Z,9.82
2022-11-23T02:17:43.185Z,10.20
2022-11-23T02:20:03.546Z,13.02
2022-11-23T02:22:09.849Z,8.73
2022-11-23T02:24:28.708Z,9.80
2022-11-23T02:26:32.697Z,11.25
2022-11-23T02:28:38.215Z,9.50
2022-11-23T02:30:40.191Z,10.38
2022-11-23T02:32:42.060Z,11.32
2022-11-23T02:34:43.700Z,11.50
2022-11-23T02:36:48.222Z,11.52
2022-11-23T02:38:49.999Z,10.10
2022-11-23T02:40:51.646Z,11.73
2022-11-23T02:42:53.294Z,10.30
2022-11-23T02:44:54.881Z,11.95
2022-11-23T02:46:56.611Z,11.45
2022-11-23T02:48:58.178Z,12.95
2022-11-23T02:50:59.820Z,12.13
2022-11-23T02:53:01.368Z,12.18
2022-11-23T02:55:02.978Z,12.65
2022-11-23T02:57:05.639Z,15.95
2022-11-23T02:59:07.458Z,13.32
2022-11-23T03:01:09.101Z,14.02
2022-11-23T03:03:10.722Z,14.13
2022-11-23T03:05:12.312Z,13.27
2022-11-23T03:07:13.919Z,12.52
2022-11-23T03:09:15.577Z,13.27
2022-11-23T03:11:17.565Z,13.63
2022-11-23T03:13:19.256Z,12.88
2022-11-23T03:15:20.914Z,13.65
2022-11-23T03:17:22.785Z,14.10
2022-11-23T03:19:24.421Z,14.57
2022-11-23T03:21:26.245Z,16.52
2022-11-23T03:23:27.852Z,14.38
2022-11-23T03:25:29.553Z,16.05
2022-11-23T03:27:33.608Z,16.00
2022-11-23T03:29:35.219Z,16.77
2022-11-23T03:31:36.855Z,15.40
2022-11-23T03:33:38.697Z,17.13
2022-11-23T03:35:43.323Z,13.90
2022-11-23T03:37:44.908Z,13.45
2022-11-23T03:39:47.698Z,14.85
2022-11-23T03:41:49.498Z,15.30
2022-11-23T03:43:51.066Z,15.35
2022-11-23T03:45:52.671Z,16.60
2022-11-23T03:47:54.353Z,14.35
2022-11-23T03:49:55.950Z,12.82
2022-11-23T03:51:57.671Z,14.88
2022-11-23T03:53:59.263Z,12.50
2022-11-23T03:56:00.922Z,14.48
2022-11-23T03:58:02.780Z,15.25
2022-11-23T04:00:04.906Z,15.05
2022-11-23T04:02:08.107Z,13.43
2022-11-23T04:04:09.783Z,14.38
2022-11-23T04:06:11.339Z,12.18
2022-11-23T04:08:19.252Z,10.80
2022-11-23T04:10:23.924Z,12.85
2022-11-23T04:12:26.297Z,11.73
2022-11-23T04:14:27.849Z,12.05
2022-11-23T04:16:29.421Z,11.45
2022-11-23T04:18:31.087Z,12.05
2022-11-23T04:20:32.665Z,14.27
2022-11-23T04:22:34.248Z,12.43
2022-11-23T04:24:35.885Z,13.98
2022-11-23T04:26:37.552Z,13.25
2022-11-23T04:28:39.109Z,13.98
2022-11-23T04:30:40.717Z,11.05
2022-11-23T04:32:45.279Z,13.43
2022-11-23T04:34:46.858Z,13.30
2022-11-23T04:36:48.559Z,13.68
2022-11-23T04:38:50.808Z,13.68
2022-11-23T04:40:52.633Z,14.98
2022-11-23T04:42:57.589Z,12.80
2022-11-23T04:45:02.066Z,16.90
2022-11-23T04:47:03.922Z,13.35
2022-11-23T04:49:05.525Z,13.77
2022-11-23T04:51:07.339Z,13.75
2022-11-23T04:53:09.284Z,14.18
2022-11-23T04:55:10.887Z,14.30
2022-11-23T04:57:12.444Z,16.10
2022-11-23T04:59:14.192Z,16.67
2022-11-23T05:01:15.772Z,20.98
2022-11-23T05:03:17.400Z,20.83
2022-11-23T05:05:19.030Z,19.92
2022-11-23T05:07:20.645Z,17.50
2022-11-23T05:09:22.410Z,20.10
2022-11-23T05:11:24.033Z,23.30
2022-11-23T05:13:25.766Z,24.15
2022-11-23T05:15:27.557Z,23.38
2022-11-23T05:17:29.176Z,21.15
2022-11-23T05:19:31.081Z,23.70
2022-11-23T05:21:32.902Z,24.60
2022-11-23T05:23:34.531Z,21.88
2022-11-23T05:25:36.084Z,27.45
2022-11-23T05:27:37.738Z,23.35
2022-11-23T05:29:39.355Z,30.40
2022-11-23T05:31:40.899Z,29.27
2022-11-23T05:33:42.495Z,28.70
2022-11-23T05:35:44.253Z,24.70
2022-11-23T05:37:45.883Z,23.98
2022-11-23T05:39:47.460Z,23.73
2022-11-23T05:41:49.153Z,28.92
2022-11-23T05:43:50.764Z,27.13
2022-11-23T05:45:52.406Z,26.08
2022-11-23T05:47:55.653Z,25.35
2022-11-23T05:49:57.246Z,24.35
2022-11-23T05:51:58.891Z,24.83
2022-11-23T05:54:02.012Z,23.65
2022-11-23T05:56:03.800Z,22.45
2022-11-23T05:58:05.390Z,25.67
2022-11-23T06:00:08.180Z,25.10
2022-11-23T06:02:10.021Z,25.02
2022-11-23T06:04:11.621Z,22.55
2022-11-23T06:06:13.271Z,25.88
2022-11-23T06:08:14.845Z,24.55
2022-11-23T06:10:16.487Z,25.17
2022-11-23T06:12:18.081Z,23.85
2022-11-23T06:14:19.809Z,25.27
2022-11-23T06:16:21.455Z,23.25
2022-11-23T06:18:23.214Z,24.00
2022-11-23T06:20:24.842Z,26.27
2022-11-23T06:22:26.443Z,20.83
2022-11-23T06:24:28.065Z,28.40
2022-11-23T06:26:30.239Z,22.20
2022-11-23T06:28:31.923Z,23.05
2022-11-23T06:30:33.746Z,24.55
2022-11-23T06:32:35.461Z,23.95
2022-11-23T06:34:37.064Z,21.58
2022-11-23T06:36:38.808Z,22.42
2022-11-23T06:38:40.710Z,23.02
2022-11-23T06:40:42.194Z,24.95
2022-11-23T06:42:43.767Z,20.70
2022-11-23T06:44:45.330Z,25.23
2022-11-23T06:46:46.892Z,28.25
2022-11-23T06:48:48.727Z,23.90
2022-11-23T06:50:50.649Z,26.55
2022-11-23T06:52:56.532Z,24.10
2022-11-23T06:54:58.357Z,23.75
2022-11-23T06:56:59.866Z,27.70
2022-11-23T06:59:01.499Z,23.90
2022-11-23T07:01:05.786Z,23.15
2022-11-23T07:03:07.481Z,22.55
2022-11-23T07:05:09.601Z,24.08
2022-11-23T07:07:11.551Z,21.80
2022-11-23T07:09:13.167Z,25.08
2022-11-23T07:11:14.775Z,25.20
2022-11-23T07:13:16.566Z,21.48
2022-11-23T07:15:18.252Z,25.50
2022-11-23T07:17:19.882Z,26.00
2022-11-23T07:19:21.594Z,25.50
2022-11-23T07:21:23.252Z,24.80
2022-11-23T07:23:25.126Z,24.00
2022-11-23T07:25:26.684Z,21.60
2022-11-23T07:27:28.365Z,23.92
2022-11-23T07:29:30.134Z,18.88
2022-11-23T07:31:32.175Z,20.70
2022-11-23T07:33:33.900Z,18.92
2022-11-23T07:35:37.049Z,18.27
2022-11-23T07:37:38.616Z,20.42
2022-11-23T07:39:56.956Z,18.05
2022-11-23T07:42:24.814Z,23.08
2022-11-23T07:44:21.215Z,20.40
2022-11-23T07:46:22.966Z,23.00
2022-11-23T07:48:25.095Z,22.40
2022-11-23T07:50:27.123Z,21.30
2022-11-23T07:52:28.865Z,24.60
2022-11-23T07:54:30.568Z,22.25
2022-11-23T07:56:32.224Z,25.98
2022-11-23T07:58:34.756Z,21.48
2022-11-23T08:00:36.558Z,21.10
2022-11-23T08:02:39.141Z,21.92
2022-11-23T08:04:43.916Z,19.42
2022-11-23T08:06:45.683Z,24.58
2022-11-23T08:08:47.395Z,19.33
2022-11-23T08:10:53.274Z,22.73
2022-11-23T08:13:00.031Z,19.52
2022-11-23T08:15:01.694Z,18.20
2022-11-23T08:17:03.424Z,18.70
2022-11-23T08:19:05.083Z,17.13
2022-11-23T08:21:06.704Z,18.52
2022-11-23T08:23:08.350Z,19.63
2022-11-23T08:25:10.264Z,20.00
2022-11-23T08:27:11.923Z,28.27
2022-11-23T08:29:13.691Z,20.95
2022-11-23T08:31:15.354Z,24.15
2022-11-23T08:33:17.402Z,52.30
2022-11-23T08:35:19.120Z,31.10
2022-11-23T08:37:20.910Z,21.40
2022-11-23T08:39:22.518Z,25.67
2022-11-23T08:41:24.129Z,22.38
2022-11-23T08:43:26.074Z,26.05
2022-11-23T08:45:28.026Z,22.33
2022-11-23T08:47:29.682Z,25.10
2022-11-23T08:49:31.274Z,32.88
2022-11-23T08:51:33.363Z,24.65
2022-11-23T08:53:34.937Z,27.55
2022-11-23T08:55:36.650Z,24.45
2022-11-23T08:57:38.520Z,25.58
2022-11-23T08:59:40.213Z,23.08
2022-11-23T09:01:41.859Z,23.65
2022-11-23T09:03:44.188Z,22.17
2022-11-23T09:05:46.185Z,22.40
2022-11-23T09:07:48.413Z,27.20
2022-11-23T09:09:50.109Z,25.25
2022-11-23T09:11:53.024Z,19.77
2022-11-23T09:13:55.111Z,25.87
2022-11-23T09:16:00.146Z,20.13
2022-11-23T09:18:01.922Z,21.27
2022-11-23T09:20:03.823Z,22.50
2022-11-23T09:22:05.419Z,21.48
2022-11-23T09:24:07.287Z,21.58
2022-11-23T09:26:10.505Z,20.38
2022-11-23T09:28:12.734Z,20.25
2022-11-23T09:30:14.928Z,18.58
2022-11-23T09:32:16.618Z,22.75
2022-11-23T09:34:18.385Z,22.42
2022-11-23T09:36:20.445Z,19.20
2022-11-23T09:38:33.597Z,20.27
2022-11-23T09:40:43.792Z,21.63
2022-11-23T09:42:53.901Z,21.15
2022-11-23T09:45:03.616Z,21.40
2022-11-23T09:47:14.083Z,20.33
2022-11-23T09:49:18.125Z,19.05
2022-11-23T09:51:21.553Z,18.55
2022-11-23T09:53:26.504Z,16.92
2022-11-23T09:55:44.300Z,16.13
2022-11-23T09:57:47.446Z,12.25
2022-11-23T09:59:59.561Z,11.20
2022-11-23T10:02:01.375Z,14.10
2022-11-23T10:04:04.962Z,13.55
2022-11-23T10:06:18.916Z,15.10
2022-11-23T10:08:48.874Z,14.70
2022-11-23T10:11:00.576Z,20.27
2022-11-23T10:13:11.576Z,11.82
2022-11-23T10:15:14.455Z,12.70
2022-11-23T10:17:57.825Z,12.33
2022-11-23T10:20:37.004Z,10.90
2022-11-23T10:22:46.530Z,10.93
2022-11-23T10:24:51.511Z,14.45
2022-11-23T10:26:53.177Z,11.07
2022-11-23T10:28:55.424Z,12.38
2022-11-23T10:31:07.849Z,9.50
2022-11-23T10:33:27.587Z,12.30
2022-11-23T10:35:32.088Z,8.65
2022-11-23T10:37:34.783Z,10.32
2022-11-23T10:39:36.492Z,9.45
2022-11-23T10:41:38.084Z,9.60
2022-11-23T10:43:47.745Z,11.25
2022-11-23T10:45:49.431Z,12.35
2022-11-23T10:47:53.179Z,9.48
2022-11-23T10:54:05.676Z,5.63
2022-11-23T10:56:12.608Z,4.20
2022-11-23T10:58:31.825Z,4.18
2022-11-23T11:00:33.425Z,7.90
2022-11-23T11:02:40.677Z,3.60
2022-11-23T11:04:43.170Z,7.10
2022-11-23T11:06:44.782Z,10.02
2022-11-23T11:08:51.394Z,7.53
2022-11-23T11:11:05.561Z,8.80
2022-11-23T11:15:24.530Z,7.18
2022-11-23T11:17:28.661Z,10.77
2022-11-23T11:19:35.103Z,6.72
2022-11-23T11:21:41.415Z,8.15
2022-11-23T11:23:43.943Z,6.05
2022-11-23T11:25:47.502Z,8.95
2022-11-23T11:27:52.519Z,8.45
2022-11-23T11:29:56.253Z,7.90
2022-11-23T11:34:48.895Z,7.97
2022-11-23T11:36:56.883Z,8.80
2022-11-23T11:39:17.797Z,8.60
2022-11-23T11:41:25.430Z,12.10
2022-11-23T11:43:39.626Z,10.25
2022-11-23T11:46:13.593Z,8.27
2022-11-23T11:48:18.249Z,7.15
2022-11-23T11:50:29.970Z,4.93
2022-11-23T11:52:37.377Z,5.38
2022-11-23T11:55:00.597Z,4.68
2022-11-23T11:57:36.664Z,4.88
2022-11-23T11:59:44.628Z,5.50
2022-11-23T12:01:56.227Z,5.25
2022-11-23T12:04:02.405Z,5.35
2022-11-23T12:06:46.688Z,6.00
2022-11-23T12:08:51.807Z,5.63
2022-11-23T12:10:53.936Z,5.43
2022-11-23T12:12:56.872Z,5.68
2022-11-23T12:14:58.772Z,6.53
2022-11-23T12:17:32.945Z,2.42
2022-11-23T12:19:43.869Z,5.32
2022-11-23T12:21:52.766Z,2.72
2022-11-23T12:24:15.572Z,2.25
2022-11-23T12:26:43.310Z,3.83
2022-11-23T12:28:47.732Z,5.88
2022-11-23T12:30:57.113Z,3.75
2022-11-23T12:33:32.880Z,5.43
2022-11-23T12:35:56.300Z,3.55
2022-11-23T12:38:16.653Z,4.65
2022-11-23T12:40:43.460Z,2.15
2022-11-23T12:42:52.744Z,2.75
2022-11-23T12:45:24.413Z,1.65
2022-11-23T12:47:54.951Z,1.55
2022-11-23T12:50:03.711Z,5.28
2022-11-23T12:52:27.215Z,2.30
2022-11-23T12:54:52.004Z,2.72
2022-11-23T12:57:15.112Z,2.88
2022-11-23T12:59:17.908Z,2.45
2022-11-23T13:01:30.506Z,1.80
2022-11-23T13:04:03.101Z,2.13
2022-11-23T13:06:36.064Z,2.33
2022-11-23T13:09:19.168Z,3.85
2022-11-23T13:11:47.079Z,4.53
2022-11-23T13:13:59.279Z,4.70
2022-11-23T13:16:24.242Z,5.82
2022-11-23T13:18:43.354Z,3.03
2022-11-23T13:20:57.013Z,4.40
2022-11-23T13:22:58.932Z,2.25
2022-11-23T13:25:13.079Z,2.88
2022-11-23T13:29:50.092Z,3.40
2022-11-23T13:32:30.404Z,4.90
2022-11-23T13:34:47.119Z,4.53
2022-11-23T13:37:17.085Z,4.03
2022-11-23T13:39:40.464Z,4.85
2022-11-23T13:41:42.114Z,5.47
2022-11-23T13:43:43.693Z,3.17
2022-11-23T13:45:45.684Z,5.60
2022-11-23T13:48:54.983Z,2.67
2022-11-23T13:50:50.955Z,4.50
2022-11-23T13:52:53.657Z,6.93
2022-11-23T13:55:05.565Z,4.93
2022-11-23T13:57:13.464Z,2.60
2022-11-23T13:59:23.806Z,4.05
2022-11-23T14:02:00.528Z,6.50
2022-11-23T14:04:25.518Z,5.03
2022-11-23T14:06:54.576Z,5.15
2022-11-23T14:09:11.315Z,3.15
2022-11-23T14:11:16.462Z,2.35
2022-11-23T14:13:21.649Z,2.25
2022-11-23T14:15:25.788Z,2.95
2022-11-23T14:17:27.388Z,2.25
2022-11-23T14:19:46.881Z,2.20
2022-11-23T14:22:14.040Z,2.78
2022-11-23T14:24:34.361Z,3.45
2022-11-23T14:27:17.498Z,3.55
2022-11-23T14:29:38.962Z,3.53
2022-11-23T14:31:58.026Z,2.83
2022-11-23T14:34:08.097Z,3.60
2022-11-23T14:36:20.280Z,5.35
2022-11-23T14:38:40.116Z,3.58
2022-11-23T14:41:07.210Z,2.83
2022-11-23T14:43:13.241Z,5.05
2022-11-23T14:45:15.737Z,2.83
2022-11-23T14:47:26.396Z,2.85
2022-11-23T14:49:28.588Z,2.80
2022-11-23T14:51:32.932Z,6.82
2022-11-23T14:53:50.322Z,4.32
2022-11-23T14:56:00.758Z,2.58
2022-11-23T14:58:04.836Z,5.07
2022-11-23T15:00:11.603Z,6.93
2022-11-23T15:02:30.006Z,13.43
2022-11-23T15:04:37.898Z,10.13
2022-11-23T15:06:45.701Z,6.03
2022-11-23T15:09:07.936Z,8.82
2022-11-23T15:11:13.088Z,7.93
2022-11-23T15:13:24.882Z,8.27
2022-11-23T15:15:31.320Z,7.20
2022-11-23T15:17:34.098Z,5.22
2022-11-23T15:19:35.650Z,10.13
2022-11-23T15:21:37.224Z,4.57
2022-11-23T15:23:45.284Z,5.53
2022-11-23T15:25:54.445Z,7.60
2022-11-23T15:27:56.387Z,10.00
2022-11-23T15:30:00.565Z,5.25
2022-11-23T15:34:25.554Z,7.38
2022-11-23T15:36:34.434Z,4.78
2022-11-23T15:38:36.062Z,3.38
2022-11-23T15:40:38.487Z,6.82
2022-11-23T15:42:40.383Z,4.93
2022-11-23T15:44:46.114Z,2.75
2022-11-23T15:46:53.711Z,2.40
2022-11-23T15:48:56.439Z,9.95
2022-11-23T15:51:00.019Z,8.18
2022-11-23T15:53:02.059Z,7.65
2022-11-23T15:55:10.014Z,5.95
2022-11-23T15:57:19.441Z,8.48
2022-11-23T15:59:57.581Z,7.20
2022-11-23T16:02:02.271Z,10.55
2022-11-23T16:04:04.889Z,10.75
2022-11-23T16:06:12.807Z,8.43
2022-11-23T16:08:26.860Z,9.40
2022-11-23T16:10:30.709Z,8.48
2022-11-23T16:14:35.689Z,7.47
2022-11-23T16:16:40.314Z,7.75
2022-11-23T16:18:48.013Z,10.43
2022-11-23T16:22:54.471Z,12.73
2022-11-23T16:25:01.726Z,9.90
2022-11-23T16:27:13.084Z,12.55
2022-11-23T16:29:24.555Z,10.55
2022-11-23T16:31:31.423Z,8.90
2022-11-23T16:33:34.198Z,7.53
2022-11-23T16:35:36.026Z,6.30
2022-11-23T16:37:37.697Z,5.43
2022-11-23T16:39:39.256Z,7.47
2022-11-23T16:41:41.268Z,3.85
2022-11-23T16:43:42.946Z,2.13
2022-11-23T16:45:46.622Z,12.77
2022-11-23T16:48:26.675Z,24.70
2022-11-23T16:50:30.394Z,7.00
2022-11-23T16:52:32.075Z,6.95
2022-11-23T16:54:33.905Z,5.70
2022-11-23T16:56:35.612Z,4.68
2022-11-23T16:58:37.308Z,3.47
2022-11-23T17:00:39.938Z,5.45
2022-11-23T17:02:41.566Z,3.30
2022-11-23T17:04:44.071Z,5.88
2022-11-23T17:06:45.850Z,4.32
2022-11-23T17:08:48.381Z,3.95
2022-11-23T17:10:52.260Z,4.45
2022-11-23T17:12:55.285Z,13.85
2022-11-23T17:14:56.938Z,5.07
2022-11-23T17:17:02.694Z,8.70
2022-11-23T17:19:04.435Z,8.38
2022-11-23T17:21:06.756Z,6.75
2022-11-23T17:23:08.512Z,7.03
2022-11-23T17:25:14.994Z,6.57
2022-11-23T17:27:20.850Z,5.13
2022-11-23T17:29:22.591Z,8.45
2022-11-23T17:31:24.213Z,6.35
2022-11-23T17:33:25.788Z,5.35
2022-11-23T17:35:27.878Z,3.85
2022-11-23T17:37:29.488Z,3.20
2022-11-23T17:39:31.699Z,3.70
2022-11-23T17:41:33.747Z,5.55
2022-11-23T17:43:35.412Z,5.28
2022-11-23T17:45:37.232Z,4.47
2022-11-23T17:47:39.998Z,3.53
2022-11-23T17:49:41.582Z,3.72
2022-11-23T17:51:43.362Z,2.67
2022-11-23T17:53:45.903Z,3.40
2022-11-23T17:55:47.481Z,4.47
2022-11-23T17:57:49.102Z,3.00
2022-11-23T17:59:51.145Z,3.90
2022-11-23T18:01:52.833Z,7.45
2022-11-23T18:03:54.578Z,3.35
2022-11-23T18:05:56.255Z,8.05
2022-11-23T18:07:57.893Z,8.90
2022-11-23T18:09:59.464Z,8.55
2022-11-23T18:12:01.076Z,8.77
2022-11-23T18:14:03.631Z,7.50
2022-11-23T18:16:06.128Z,6.53
2022-11-23T18:18:07.896Z,5.85
2022-11-23T18:20:10.580Z,4.68
2022-11-23T18:22:12.253Z,4.93
2022-11-23T18:24:14.692Z,4.40
2022-11-23T18:26:19.516Z,3.65
2022-11-23T18:28:21.734Z,5.82
2022-11-23T18:30:23.413Z,2.30
2022-11-23T18:32:25.063Z,3.47
2022-11-23T18:34:26.935Z,4.15
2022-11-23T18:36:29.588Z,5.30
2022-11-23T18:38:31.585Z,6.07
2022-11-23T18:40:33.291Z,6.55
2022-11-23T18:42:35.004Z,3.65
2022-11-23T18:44:36.643Z,3.30
2022-11-23T18:46:38.440Z,3.42
2022-11-23T18:48:40.171Z,6.78
2022-11-23T18:50:42.603Z,4.40
2022-11-23T18:52:44.277Z,5.63
2022-11-23T18:54:46.141Z,8.52
2022-11-23T18:56:48.174Z,5.28
2022-11-23T18:58:49.903Z,5.60
2022-11-23T19:00:51.558Z,7.68
2022-11-23T19:02:58.889Z,9.45
2022-11-23T19:05:00.615Z,9.35
2022-11-23T19:07:02.259Z,10.35
2022-11-23T19:09:04.050Z,10.63
2022-11-23T19:11:07.843Z,11.55
2022-11-23T19:15:11.794Z,12.50
2022-11-23T19:17:13.368Z,9.82
2022-11-23T19:19:15.038Z,9.25
2022-11-23T19:21:21.303Z,10.50
2022-11-23T19:23:26.901Z,11.88
2022-11-23T19:25:31.290Z,13.95
2022-11-23T19:27:36.193Z,10.10
2022-11-23T19:29:38.103Z,9.30
2022-11-23T19:31:39.886Z,11.70
2022-11-23T19:33:42.445Z,10.75
2022-11-23T19:35:44.004Z,13.40
2022-11-23T19:37:45.836Z,14.57
2022-11-23T19:39:47.453Z,5.32
2022-11-23T19:41:49.227Z,10.18
2022-11-23T19:43:54.570Z,14.43
2022-11-23T19:45:57.635Z,16.63
2022-11-23T19:47:59.321Z,22.17
2022-11-23T19:50:01.175Z,17.80
2022-11-23T19:52:03.743Z,15.38
2022-11-23T19:54:09.955Z,17.48
2022-11-23T19:56:22.774Z,15.93
2022-11-23T19:58:24.448Z,17.67
2022-11-23T20:00:26.088Z,20.00
2022-11-23T20:02:29.964Z,15.02
2022-11-23T20:06:37.081Z,12.38
2022-11-23T20:08:38.684Z,17.70
2022-11-23T20:10:40.321Z,11.30
2022-11-23T20:12:42.103Z,19.10
2022-11-23T20:14:43.654Z,18.63
2022-11-23T20:16:45.460Z,20.77
2022-11-23T20:18:50.933Z,8.73
2022-11-23T20:20:53.331Z,13.65
2022-11-23T20:22:54.977Z,15.85
2022-11-23T20:24:56.542Z,11.65
2022-11-23T20:26:58.226Z,16.10
2022-11-23T20:28:59.891Z,12.02
2022-11-23T20:31:05.578Z,21.42
2022-11-23T20:33:07.322Z,12.80
2022-11-23T20:35:09.335Z,12.57
2022-11-23T20:37:10.983Z,16.52
2022-11-23T20:39:14.163Z,16.35
2022-11-23T20:41:19.444Z,15.77
2022-11-23T20:43:21.044Z,11.95
2022-11-23T20:45:23.268Z,11.70
2022-11-23T20:47:25.053Z,15.02
2022-11-23T20:49:26.775Z,16.90
2022-11-23T20:51:29.583Z,11.13
2022-11-23T20:53:31.898Z,15.10
2022-11-23T20:55:33.705Z,16.92
2022-11-23T20:57:35.498Z,13.40
2022-11-23T20:59:37.107Z,17.70
2022-11-23T21:01:40.708Z,11.43
2022-11-23T21:05:44.355Z,11.85
2022-11-23T21:07:47.094Z,16.50
2022-11-23T21:09:48.810Z,9.68
2022-11-23T21:12:09.302Z,12.05
2022-11-23T21:14:18.526Z,13.63
2022-11-23T21:16:20.660Z,12.80
2022-11-23T21:18:22.258Z,12.07
2022-11-23T21:20:23.789Z,11.90
2022-11-23T21:22:25.375Z,18.63
2022-11-23T21:24:28.254Z,17.00
2022-11-23T21:26:30.094Z,15.68
2022-11-23T21:28:32.679Z,14.73
2022-11-23T21:30:35.975Z,11.95
2022-11-23T21:32:37.979Z,13.90
2022-11-23T21:34:39.861Z,15.30
2022-11-23T21:36:41.741Z,14.35
2022-11-23T21:38:43.484Z,15.73
2022-11-23T21:40:45.414Z,11.90
2022-11-23T21:42:47.085Z,12.25
2022-11-23T21:44:48.717Z,11.68
2022-11-23T21:46:51.017Z,10.02
2022-11-23T21:48:56.938Z,13.88
2022-11-23T21:51:11.843Z,12.77
2022-11-23T21:53:13.433Z,11.82
2022-11-23T21:55:15.452Z,13.52
2022-11-23T21:57:17.124Z,14.10
2022-11-23T21:59:18.742Z,9.73
2022-11-23T22:01:23.526Z,11.15
2022-11-23T22:03:25.192Z,13.82
2022-11-23T22:05:26.779Z,8.98
2022-11-23T22:07:28.455Z,12.60
2022-11-23T22:09:32.717Z,11.60
2022-11-23T22:11:35.601Z,11.48
2022-11-23T22:13:39.514Z,10.45
2022-11-23T22:17:42.471Z,9.68
2022-11-23T22:19:44.410Z,10.63
2022-11-23T22:21:46.822Z,13.50
2022-11-23T22:23:48.553Z,13.57
2022-11-23T22:25:50.231Z,10.23
2022-11-23T22:27:52.549Z,11.75
2022-11-23T22:29:54.226Z,11.13
2022-11-23T22:31:55.800Z,10.43
2022-11-23T22:33:57.478Z,12.27
2022-11-23T22:36:00.884Z,11.38
2022-11-23T22:38:02.419Z,13.45
2022-11-23T22:40:05.066Z,14.20
2022-11-23T22:42:06.669Z,10.82
2022-11-23T22:44:09.774Z,10.45
2022-11-23T22:46:16.185Z,10.50
2022-11-23T22:48:17.869Z,13.35
2022-11-23T22:50:19.687Z,14.15
2022-11-23T22:52:21.244Z,11.10
2022-11-23T22:54:23.078Z,13.68
2022-11-23T22:56:25.734Z,12.48
2022-11-23T22:58:27.883Z,15.50
2022-11-23T23:00:29.488Z,11.05
2022-11-23T23:02:31.600Z,10.35
2022-11-23T23:04:33.534Z,11.13
2022-11-23T23:06:36.008Z,9.57
2022-11-23T23:08:37.617Z,10.13
2022-11-23T23:10:39.830Z,11.88
2022-11-23T23:12:41.513Z,14.30
2022-11-23T23:14:43.241Z,13.38
2022-11-23T23:16:44.886Z,10.32
2022-11-23T23:18:46.579Z,10.40
2022-11-23T23:20:48.143Z,12.35
2022-11-23T23:22:49.695Z,13.73
2022-11-23T23:24:51.578Z,14.30
2022-11-23T23:26:53.150Z,13.98
2022-11-23T23:28:56.126Z,14.63
2022-11-23T23:31:06.094Z,12.52
2022-11-23T23:33:07.612Z,15.30
2022-11-23T23:35:09.347Z,15.10
2022-11-23T23:37:12.564Z,12.10
2022-11-23T23:39:14.316Z,11.73
2022-11-23T23:41:15.997Z,13.52
2022-11-23T23:43:17.909Z,12.50
2022-11-23T23:45:19.464Z,12.35
2022-11-23T23:47:21.013Z,11.57
2022-11-23T23:49:24.566Z,10.55
2022-11-23T23:51:26.314Z,7.63
2022-11-23T23:53:27.847Z,8.15
2022-11-23T23:55:29.482Z,8.73
2022-11-23T23:57:31.028Z,8.40
2022-11-23T23:59:32.585Z,12.30
